createdAt,value
2018-09-06T00:01:15.583Z,16.56
2018-09-06T00:07:20.764Z,16.60
2018-09-06T00:13:25.460Z,16.56
2018-09-06T00:19:30.211Z,16.71
2018-09-06T00:25:35.807Z,16.52
2018-09-06T00:31:41.699Z,16.28
2018-09-06T00:37:46.747Z,16.41
2018-09-06T00:43:51.655Z,16.24
2018-09-06T00:49:56.522Z,16.05
2018-09-06T00:56:01.371Z,16.30
2018-09-06T01:02:06.661Z,16.35
2018-09-06T01:08:14.438Z,16.23
2018-09-06T01:14:19.454Z,16.24
2018-09-06T01:20:24.347Z,16.09
2018-09-06T01:26:29.634Z,16.17
2018-09-06T01:32:34.877Z,16.30
2018-09-06T01:38:39.889Z,16.10
2018-09-06T01:44:44.841Z,15.89
2018-09-06T01:50:49.636Z,15.72
2018-09-06T01:56:54.460Z,15.77
2018-09-06T02:02:59.650Z,15.50
2018-09-06T02:09:05.854Z,15.50
2018-09-06T02:15:11.122Z,15.38
2018-09-06T02:21:15.959Z,15.55
2018-09-06T02:27:20.819Z,15.15
2018-09-06T02:33:25.721Z,15.33
2018-09-06T02:39:30.558Z,15.04
2018-09-06T02:45:35.495Z,14.91
2018-09-06T02:51:41.706Z,14.96
2018-09-06T02:57:47.065Z,15.06
2018-09-06T03:03:51.818Z,14.95
2018-09-06T03:09:56.645Z,15.11
2018-09-06T03:16:02.018Z,14.94
2018-09-06T03:22:06.847Z,14.79
2018-09-06T03:28:13.113Z,14.92
2018-09-06T03:34:17.853Z,14.77
2018-09-06T03:40:22.833Z,14.84
2018-09-06T03:46:27.573Z,14.84
2018-09-06T03:52:32.391Z,14.61
2018-09-06T03:58:37.546Z,14.70
2018-09-06T04:04:44.039Z,14.39
2018-09-06T04:10:48.926Z,14.35
2018-09-06T04:16:53.793Z,14.38
2018-09-06T04:22:58.568Z,14.32
2018-09-06T04:29:03.567Z,14.40
2018-09-06T04:35:09.569Z,14.19
2018-09-06T04:41:15.391Z,14.08
2018-09-06T04:47:20.170Z,13.93
2018-09-06T04:53:24.909Z,14.02
2018-09-06T04:59:29.843Z,14.17
2018-09-06T05:05:34.720Z,14.14
2018-09-06T05:11:40.859Z,14.15
2018-09-06T05:17:46.471Z,14.30
2018-09-06T05:23:51.232Z,14.27
2018-09-06T05:29:56.535Z,14.75
2018-09-06T05:36:01.463Z,14.78
2018-09-06T05:42:06.636Z,15.12
2018-09-06T05:48:11.981Z,15.10
2018-09-06T05:54:16.880Z,15.36
2018-09-06T06:00:26.957Z,15.55
2018-09-06T06:06:31.703Z,16.08
2018-09-06T06:12:36.457Z,16.23
2018-09-06T06:18:41.598Z,16.46
2018-09-06T06:24:46.620Z,16.73
2018-09-06T06:30:51.524Z,17.29
2018-09-06T06:36:56.513Z,17.52
2018-09-06T06:43:01.363Z,18.06
2018-09-06T06:49:06.839Z,21.23
2018-09-06T06:55:12.081Z,24.30
2018-09-06T07:01:17.519Z,25.77
2018-09-06T07:07:22.286Z,26.80
2018-09-06T07:13:27.248Z,25.03
2018-09-06T07:19:32.197Z,22.79
2018-09-06T07:25:36.981Z,22.18
2018-09-06T07:31:42.552Z,21.87
2018-09-06T07:37:47.454Z,22.10
2018-09-06T07:43:52.277Z,21.97
2018-09-06T07:49:57.129Z,22.31
2018-09-06T07:56:02.205Z,22.86
2018-09-06T08:02:07.079Z,23.17
2018-09-06T08:08:12.346Z,23.77
2018-09-06T08:14:17.292Z,24.07
2018-09-06T08:20:22.132Z,24.67
2018-09-06T08:26:27.404Z,25.17
2018-09-06T08:32:32.159Z,25.57
2018-09-06T08:38:37.070Z,26.24
2018-09-06T08:44:42.354Z,26.39
2018-09-06T08:50:47.665Z,26.75
2018-09-06T08:56:52.764Z,27.45
2018-09-06T09:02:57.846Z,27.95
2018-09-06T09:09:02.527Z,28.43
2018-09-06T09:15:07.921Z,29.42
2018-09-06T09:21:13.622Z,30.01
2018-09-06T09:27:18.478Z,30.54
2018-09-06T09:33:23.384Z,30.72
2018-09-06T09:39:28.283Z,32.11
2018-09-06T09:45:33.042Z,32.45
2018-09-06T09:51:37.905Z,33.42
2018-09-06T09:57:43.490Z,33.99
2018-09-06T10:03:53.465Z,34.45
2018-09-06T10:09:58.590Z,36.58
2018-09-06T10:16:03.702Z,37.61
2018-09-06T10:22:09.154Z,38.37
2018-09-06T10:28:14.263Z,38.37
2018-09-06T10:34:19.324Z,39.39
2018-09-06T10:40:24.239Z,40.18
2018-09-06T10:46:28.899Z,40.04
2018-09-06T10:52:33.937Z,40.05
2018-09-06T10:58:39.032Z,40.14
2018-09-06T11:04:44.476Z,39.02
2018-09-06T11:10:49.568Z,38.18
2018-09-06T11:16:54.353Z,37.43
2018-09-06T11:22:59.148Z,37.31
2018-09-06T11:29:03.891Z,35.76
2018-09-06T11:35:08.742Z,35.99
2018-09-06T11:41:13.585Z,36.44
2018-09-06T11:47:19.036Z,35.71
2018-09-06T11:53:23.721Z,34.52
2018-09-06T11:59:28.508Z,33.62
2018-09-06T12:05:33.348Z,33.62
2018-09-06T12:11:38.260Z,31.81
2018-09-06T12:17:44.379Z,30.87
2018-09-06T12:23:49.307Z,30.44
2018-09-06T12:29:54.115Z,30.60
2018-09-06T12:35:59.072Z,31.14
2018-09-06T12:42:04.008Z,31.58
2018-09-06T12:48:09.148Z,32.63
2018-09-06T12:54:14.327Z,33.13
2018-09-06T13:00:19.087Z,33.20
2018-09-06T13:06:23.885Z,31.94
2018-09-06T13:12:28.692Z,32.01
2018-09-06T13:18:33.522Z,31.63
2018-09-06T13:24:38.641Z,30.64
2018-09-06T13:30:43.591Z,30.97
2018-09-06T13:36:48.779Z,32.60
2018-09-06T13:42:53.553Z,33.69
2018-09-06T13:48:58.216Z,33.94
2018-09-06T13:55:03.094Z,32.12
2018-09-06T14:01:07.895Z,31.16
2018-09-06T14:07:13.523Z,31.01
2018-09-06T14:13:18.352Z,30.77
2018-09-06T14:19:23.114Z,30.19
2018-09-06T14:25:27.960Z,30.21
2018-09-06T14:31:32.746Z,29.53
2018-09-06T14:37:37.705Z,29.23
2018-09-06T14:43:43.633Z,28.98
2018-09-06T14:49:48.404Z,28.77
2018-09-06T14:55:53.228Z,28.46
2018-09-06T15:01:57.985Z,27.55
2018-09-06T15:08:02.708Z,26.81
2018-09-06T15:14:09.366Z,25.97
2018-09-06T15:20:14.345Z,25.43
2018-09-06T15:26:19.128Z,24.80
2018-09-06T15:32:23.990Z,22.19
2018-09-06T15:38:28.846Z,21.65
2018-09-06T15:44:33.590Z,20.83
2018-09-06T15:50:39.193Z,20.24
2018-09-06T15:56:44.109Z,19.78
2018-09-06T16:02:48.857Z,19.31
2018-09-06T16:08:54.199Z,19.29
2018-09-06T16:14:58.979Z,19.37
2018-09-06T16:21:03.771Z,19.62
2018-09-06T16:27:08.693Z,19.43
2018-09-06T16:33:14.765Z,19.48
2018-09-06T16:39:19.491Z,19.36
2018-09-06T16:45:24.387Z,19.44
2018-09-06T16:51:29.240Z,19.66
2018-09-06T16:57:34.836Z,19.65
2018-09-06T17:03:39.827Z,19.70
2018-09-06T17:09:45.467Z,19.78
2018-09-06T17:15:50.389Z,19.58
2018-09-06T17:21:55.549Z,19.49
2018-09-06T17:28:00.417Z,19.48
2018-09-06T17:34:05.291Z,19.32
2018-09-06T17:40:10.117Z,19.15
2018-09-06T17:46:15.548Z,19.11
2018-09-06T17:52:20.401Z,19.14
2018-09-06T17:58:25.163Z,18.93
2018-09-06T18:04:29.965Z,19.16
2018-09-06T18:10:34.947Z,19.08
2018-09-06T18:16:40.573Z,19.20
2018-09-06T18:22:45.352Z,18.92
2018-09-06T18:28:50.246Z,18.80
2018-09-06T18:34:56.063Z,18.95
2018-09-06T18:41:00.866Z,18.82
2018-09-06T18:47:05.856Z,18.75
2018-09-06T18:53:13.138Z,18.83
2018-09-06T18:59:18.250Z,18.53
2018-09-06T19:05:23.188Z,18.44
2018-09-06T19:11:28.623Z,18.53
2018-09-06T19:17:33.972Z,18.61
2018-09-06T19:23:39.148Z,18.79
2018-09-06T19:29:45.151Z,18.70
2018-09-06T19:35:49.933Z,18.37
2018-09-06T19:41:54.813Z,18.72
2018-09-06T19:47:59.702Z,18.60
2018-09-06T19:54:04.526Z,18.43
2018-09-06T20:00:11.219Z,18.37
2018-09-06T20:06:16.553Z,18.63
2018-09-06T20:12:21.738Z,18.34
2018-09-06T20:18:26.607Z,18.41
2018-09-06T20:24:31.572Z,18.30
2018-09-06T20:30:36.523Z,18.30
2018-09-06T20:36:41.661Z,18.53
2018-09-06T20:42:47.398Z,18.54
2018-09-06T20:48:52.657Z,18.47
2018-09-06T20:54:57.425Z,18.50
2018-09-06T21:01:02.266Z,18.28
2018-09-06T21:07:07.218Z,18.16
2018-09-06T21:13:13.373Z,17.93
2018-09-06T21:19:18.164Z,18.05
2018-09-06T21:25:23.101Z,17.88
2018-09-06T21:31:27.924Z,17.81
2018-09-06T21:37:33.471Z,17.89
2018-09-06T21:43:38.357Z,17.85
2018-09-06T21:49:43.227Z,17.84
2018-09-06T21:55:48.143Z,17.75
2018-09-06T22:01:53.151Z,17.82
2018-09-06T22:07:57.983Z,17.84
2018-09-06T22:14:02.805Z,17.72
2018-09-06T22:20:07.762Z,17.79
2018-09-06T22:26:12.933Z,17.79
2018-09-06T22:32:17.788Z,17.91
2018-09-06T22:38:22.652Z,17.77
2018-09-06T22:44:27.494Z,17.88
2018-09-06T22:50:32.409Z,17.99
2018-09-06T22:56:37.232Z,17.82
2018-09-06T23:02:47.251Z,17.68
2018-09-06T23:08:52.042Z,17.68
2018-09-06T23:14:57.034Z,17.72
2018-09-06T23:21:02.055Z,17.86
2018-09-06T23:27:06.840Z,17.89
2018-09-06T23:33:11.933Z,18.10
2018-09-06T23:39:16.784Z,17.89
2018-09-06T23:45:21.620Z,17.91
2018-09-06T23:51:26.565Z,17.94
2018-09-06T23:57:31.284Z,17.98
